sensor_id;sensor_type;location;lat;lon;timestamp;pressure;altitude;pressure_sealevel;temperature;humidity
56604;BME280;42486;47.478;19.036;2023-01-16T00:00:25;99632.59;;;4.15;100.00
56604;BME280;42486;47.478;19.036;2023-01-16T00:03:28;99638.66;;;4.14;100.00
56604;BME280;42486;47.478;19.036;2023-01-16T00:06:31;99626.03;;;4.10;100.00
56604;BME280;42486;47.478;19.036;2023-01-16T00:09:34;99618.34;;;3.94;100.00
56604;BME280;42486;47.478;19.036;2023-01-16T00:12:37;99619.41;;;3.90;100.00
56604;BME280;42486;47.478;19.036;2023-01-16T00:15:47;99616.75;;;3.91;100.00
56604;BME280;42486;47.478;19.036;2023-01-16T00:18:51;99616.03;;;4.04;100.00
56604;BME280;42486;47.478;19.036;2023-01-16T00:21:54;99618.03;;;3.98;100.00
56604;BME280;42486;47.478;19.036;2023-01-16T00:24:57;99608.56;;;3.99;100.00
56604;BME280;42486;47.478;19.036;2023-01-16T00:28:00;99604.03;;;3.88;100.00
56604;BME280;42486;47.478;19.036;2023-01-16T00:31:05;99599.00;;;3.85;100.00
56604;BME280;42486;47.478;19.036;2023-01-16T00:34:09;99598.94;;;3.87;100.00
56604;BME280;42486;47.478;19.036;2023-01-16T00:37:12;99593.38;;;3.93;100.00
56604;BME280;42486;47.478;19.036;2023-01-16T00:40:16;99597.81;;;3.91;100.00
56604;BME280;42486;47.478;19.036;2023-01-16T00:43:19;99596.91;;;3.92;100.00
56604;BME280;42486;47.478;19.036;2023-01-16T00:46:22;99589.06;;;3.93;100.00
56604;BME280;42486;47.478;19.036;2023-01-16T00:49:25;99587.66;;;3.88;100.00
56604;BME280;42486;47.478;19.036;2023-01-16T00:52:29;99581.41;;;3.92;100.00
56604;BME280;42486;47.478;19.036;2023-01-16T00:55:33;99585.00;;;3.89;100.00
56604;BME280;42486;47.478;19.036;2023-01-16T00:58:39;99584.88;;;3.91;100.00
56604;BME280;42486;47.478;19.036;2023-01-16T01:01:42;99580.84;;;4.01;100.00
56604;BME280;42486;47.478;19.036;2023-01-16T01:04:45;99584.38;;;4.00;100.00
56604;BME280;42486;47.478;19.036;2023-01-16T01:07:49;99587.13;;;3.97;100.00
56604;BME280;42486;47.478;19.036;2023-01-16T01:10:52;99591.63;;;3.93;100.00
56604;BME280;42486;47.478;19.036;2023-01-16T01:13:57;99580.59;;;3.91;100.00
56604;BME280;42486;47.478;19.036;2023-01-16T01:17:04;99586.31;;;3.96;100.00
56604;BME280;42486;47.478;19.036;2023-01-16T01:20:10;99574.22;;;3.97;100.00
56604;BME280;42486;47.478;19.036;2023-01-16T01:23:13;99569.31;;;3.92;100.00
56604;BME280;42486;47.478;19.036;2023-01-16T01:26:17;99569.38;;;3.91;100.00
56604;BME280;42486;47.478;19.036;2023-01-16T01:29:21;99572.91;;;3.90;100.00
56604;BME280;42486;47.478;19.036;2023-01-16T01:32:27;99564.91;;;3.94;100.00
56604;BME280;42486;47.478;19.036;2023-01-16T01:35:32;99557.22;;;3.93;100.00
56604;BME280;42486;47.478;19.036;2023-01-16T01:38:35;99530.56;;;3.92;100.00
56604;BME280;42486;47.478;19.036;2023-01-16T01:41:38;99541.19;;;4.02;100.00
56604;BME280;42486;47.478;19.036;2023-01-16T01:44:48;99560.00;;;4.04;100.00
56604;BME280;42486;47.478;19.036;2023-01-16T01:48:21;99555.75;;;4.03;100.00
56604;BME280;42486;47.478;19.036;2023-01-16T01:51:36;99555.56;;;4.06;100.00
56604;BME280;42486;47.478;19.036;2023-01-16T01:54:46;99572.75;;;4.07;100.00
56604;BME280;42486;47.478;19.036;2023-01-16T01:57:56;99565.19;;;4.18;100.00
56604;BME280;42486;47.478;19.036;2023-01-16T02:01:01;99565.00;;;4.22;100.00
56604;BME280;42486;47.478;19.036;2023-01-16T02:04:13;99560.66;;;4.22;100.00
56604;BME280;42486;47.478;19.036;2023-01-16T02:07:19;99556.50;;;4.19;100.00
56604;BME280;42486;47.478;19.036;2023-01-16T02:10:31;99551.25;;;4.21;100.00
56604;BME280;42486;47.478;19.036;2023-01-16T02:13:38;99549.50;;;4.22;100.00
56604;BME280;42486;47.478;19.036;2023-01-16T02:16:42;99541.44;;;4.12;100.00
56604;BME280;42486;47.478;19.036;2023-01-16T02:20:18;99541.44;;;4.12;100.00
56604;BME280;42486;47.478;19.036;2023-01-16T02:27:07;99522.06;;;4.05;100.00
56604;BME280;42486;47.478;19.036;2023-01-16T02:48:32;99489.38;;;4.04;100.00
56604;BME280;42486;47.478;19.036;2023-01-16T02:52:00;99484.13;;;4.05;100.00
56604;BME280;42486;47.478;19.036;2023-01-16T02:58:59;99486.06;;;4.16;100.00
56604;BME280;42486;47.478;19.036;2023-01-16T03:02:03;99483.28;;;4.19;100.00
56604;BME280;42486;47.478;19.036;2023-01-16T03:05:08;99487.81;;;4.15;100.00
56604;BME280;42486;47.478;19.036;2023-01-16T03:08:21;99479.97;;;4.17;100.00
56604;BME280;42486;47.478;19.036;2023-01-16T03:11:47;99473.50;;;4.24;100.00
56604;BME280;42486;47.478;19.036;2023-01-16T03:26:01;99443.38;;;4.37;100.00
56604;BME280;42486;47.478;19.036;2023-01-16T03:33:08;99426.78;;;4.27;100.00
56604;BME280;42486;47.478;19.036;2023-01-16T03:36:10;99427.06;;;4.23;100.00
56604;BME280;42486;47.478;19.036;2023-01-16T03:39:24;99433.16;;;4.22;100.00
56604;BME280;42486;47.478;19.036;2023-01-16T03:42:37;99420.78;;;4.27;100.00
56604;BME280;42486;47.478;19.036;2023-01-16T03:46:26;99411.53;;;4.23;100.00
56604;BME280;42486;47.478;19.036;2023-01-16T03:49:47;99412.47;;;4.22;100.00
56604;BME280;42486;47.478;19.036;2023-01-16T03:52:57;99405.19;;;4.28;100.00
56604;BME280;42486;47.478;19.036;2023-01-16T03:56:18;99409.81;;;4.23;100.00
56604;BME280;42486;47.478;19.036;2023-01-16T03:59:28;99401.19;;;4.23;100.00
56604;BME280;42486;47.478;19.036;2023-01-16T04:02:57;99386.34;;;4.26;100.00
56604;BME280;42486;47.478;19.036;2023-01-16T04:06:42;99379.88;;;4.19;100.00
56604;BME280;42486;47.478;19.036;2023-01-16T04:10:06;99380.91;;;4.16;100.00
56604;BME280;42486;47.478;19.036;2023-01-16T04:13:25;99377.09;;;4.22;100.00
56604;BME280;42486;47.478;19.036;2023-01-16T04:16:32;99369.28;;;4.24;100.00
56604;BME280;42486;47.478;19.036;2023-01-16T04:19:38;99349.41;;;4.24;100.00
56604;BME280;42486;47.478;19.036;2023-01-16T04:22:47;99349.62;;;4.21;100.00
56604;BME280;42486;47.478;19.036;2023-01-16T04:25:52;99337.72;;;4.18;100.00
56604;BME280;42486;47.478;19.036;2023-01-16T04:28:57;99345.66;;;4.15;100.00
56604;BME280;42486;47.478;19.036;2023-01-16T04:32:02;99334.59;;;4.13;100.00
56604;BME280;42486;47.478;19.036;2023-01-16T04:35:12;99330.84;;;4.17;100.00
56604;BME280;42486;47.478;19.036;2023-01-16T04:38:24;99332.81;;;4.14;100.00
56604;BME280;42486;47.478;19.036;2023-01-16T04:41:29;99338.72;;;4.16;100.00
56604;BME280;42486;47.478;19.036;2023-01-16T04:44:42;99343.06;;;4.15;100.00
56604;BME280;42486;47.478;19.036;2023-01-16T04:47:51;99327.44;;;4.17;100.00
56604;BME280;42486;47.478;19.036;2023-01-16T04:51:02;99316.88;;;4.34;100.00
56604;BME280;42486;47.478;19.036;2023-01-16T04:54:14;99310.47;;;4.40;100.00
56604;BME280;42486;47.478;19.036;2023-01-16T04:57:24;99309.94;;;4.35;100.00
56604;BME280;42486;47.478;19.036;2023-01-16T05:00:31;99305.19;;;4.29;100.00
56604;BME280;42486;47.478;19.036;2023-01-16T05:03:35;99297.72;;;4.24;100.00
56604;BME280;42486;47.478;19.036;2023-01-16T05:06:48;99299.84;;;4.17;100.00
56604;BME280;42486;47.478;19.036;2023-01-16T05:09:57;99292.94;;;4.18;100.00
56604;BME280;42486;47.478;19.036;2023-01-16T05:13:03;99298.19;;;4.16;100.00
56604;BME280;42486;47.478;19.036;2023-01-16T05:16:10;99290.66;;;4.13;100.00
56604;BME280;42486;47.478;19.036;2023-01-16T05:19:19;99279.06;;;4.19;100.00
56604;BME280;42486;47.478;19.036;2023-01-16T05:22:25;99272.78;;;4.23;100.00
56604;BME280;42486;47.478;19.036;2023-01-16T05:25:31;99279.38;;;4.14;100.00
56604;BME280;42486;47.478;19.036;2023-01-16T05:28:39;99290.34;;;4.18;100.00
56604;BME280;42486;47.478;19.036;2023-01-16T05:31:44;99278.94;;;4.08;100.00
56604;BME280;42486;47.478;19.036;2023-01-16T05:34:55;99281.03;;;4.15;100.00
56604;BME280;42486;47.478;19.036;2023-01-16T05:38:04;99288.38;;;4.22;100.00
56604;BME280;42486;47.478;19.036;2023-01-16T05:41:09;99291.44;;;4.28;100.00
56604;BME280;42486;47.478;19.036;2023-01-16T05:44:15;99295.84;;;4.26;100.00
56604;BME280;42486;47.478;19.036;2023-01-16T05:47:20;99291.59;;;4.25;100.00
56604;BME280;42486;47.478;19.036;2023-01-16T05:50:31;99284.16;;;4.21;100.00
56604;BME280;42486;47.478;19.036;2023-01-16T05:53:40;99282.41;;;4.21;100.00
56604;BME280;42486;47.478;19.036;2023-01-16T05:56:44;99284.87;;;4.23;100.00
56604;BME280;42486;47.478;19.036;2023-01-16T05:59:50;99284.50;;;4.29;100.00
56604;BME280;42486;47.478;19.036;2023-01-16T06:02:56;99280.88;;;4.31;100.00
56604;BME280;42486;47.478;19.036;2023-01-16T06:06:08;99289.25;;;4.35;100.00
56604;BME280;42486;47.478;19.036;2023-01-16T06:09:18;99288.31;;;4.36;100.00
56604;BME280;42486;47.478;19.036;2023-01-16T06:12:28;99285.94;;;4.33;100.00
56604;BME280;42486;47.478;19.036;2023-01-16T06:15:34;99286.59;;;4.36;100.00
56604;BME280;42486;47.478;19.036;2023-01-16T06:18:47;99280.38;;;4.39;100.00
56604;BME280;42486;47.478;19.036;2023-01-16T06:21:51;99284.69;;;4.38;100.00
56604;BME280;42486;47.478;19.036;2023-01-16T06:24:59;99283.06;;;4.37;100.00
56604;BME280;42486;47.478;19.036;2023-01-16T06:28:04;99279.66;;;4.37;100.00
56604;BME280;42486;47.478;19.036;2023-01-16T06:31:09;99279.19;;;4.30;100.00
56604;BME280;42486;47.478;19.036;2023-01-16T06:34:14;99275.59;;;4.33;100.00
56604;BME280;42486;47.478;19.036;2023-01-16T06:37:20;99264.00;;;4.38;100.00
56604;BME280;42486;47.478;19.036;2023-01-16T06:40:28;99265.69;;;4.39;100.00
56604;BME280;42486;47.478;19.036;2023-01-16T06:43:37;99272.09;;;4.34;100.00
56604;BME280;42486;47.478;19.036;2023-01-16T06:46:43;99260.19;;;4.31;100.00
56604;BME280;42486;47.478;19.036;2023-01-16T06:49:52;99255.03;;;4.31;100.00
56604;BME280;42486;47.478;19.036;2023-01-16T06:53:06;99263.41;;;4.35;100.00
56604;BME280;42486;47.478;19.036;2023-01-16T06:56:11;99257.81;;;4.28;100.00
56604;BME280;42486;47.478;19.036;2023-01-16T06:59:16;99249.62;;;4.22;100.00
56604;BME280;42486;47.478;19.036;2023-01-16T07:02:20;99259.25;;;4.32;100.00
56604;BME280;42486;47.478;19.036;2023-01-16T07:05:28;99259.69;;;4.39;100.00
56604;BME280;42486;47.478;19.036;2023-01-16T07:08:36;99270.94;;;4.38;100.00
56604;BME280;42486;47.478;19.036;2023-01-16T07:11:44;99250.16;;;4.27;100.00
56604;BME280;42486;47.478;19.036;2023-01-16T07:14:49;99267.72;;;4.22;100.00
56604;BME280;42486;47.478;19.036;2023-01-16T07:18:18;99269.34;;;4.23;100.00
56604;BME280;42486;47.478;19.036;2023-01-16T07:21:44;99269.31;;;4.37;100.00
56604;BME280;42486;47.478;19.036;2023-01-16T07:25:12;99263.41;;;4.35;100.00
56604;BME280;42486;47.478;19.036;2023-01-16T07:28:17;99260.84;;;4.48;100.00
56604;BME280;42486;47.478;19.036;2023-01-16T07:31:22;99251.41;;;4.47;100.00
56604;BME280;42486;47.478;19.036;2023-01-16T07:34:26;99250.19;;;4.52;100.00
56604;BME280;42486;47.478;19.036;2023-01-16T07:37:30;99254.34;;;4.55;100.00
56604;BME280;42486;47.478;19.036;2023-01-16T07:40:39;99249.88;;;4.57;100.00
56604;BME280;42486;47.478;19.036;2023-01-16T07:43:49;99236.25;;;4.55;100.00
56604;BME280;42486;47.478;19.036;2023-01-16T07:47:00;99224.75;;;4.59;100.00
56604;BME280;42486;47.478;19.036;2023-01-16T07:50:08;99210.03;;;4.47;100.00
56604;BME280;42486;47.478;19.036;2023-01-16T07:53:16;99208.69;;;4.41;100.00
56604;BME280;42486;47.478;19.036;2023-01-16T07:56:29;99203.00;;;4.36;100.00
56604;BME280;42486;47.478;19.036;2023-01-16T07:59:35;99198.75;;;4.35;100.00
56604;BME280;42486;47.478;19.036;2023-01-16T08:02:39;99191.22;;;4.32;100.00
56604;BME280;42486;47.478;19.036;2023-01-16T08:05:44;99183.22;;;4.22;100.00
56604;BME280;42486;47.478;19.036;2023-01-16T08:08:49;99179.41;;;4.28;100.00
56604;BME280;42486;47.478;19.036;2023-01-16T08:11:58;99177.66;;;4.28;100.00
56604;BME280;42486;47.478;19.036;2023-01-16T08:15:05;99162.87;;;4.30;100.00
56604;BME280;42486;47.478;19.036;2023-01-16T08:18:10;99153.56;;;4.28;100.00
56604;BME280;42486;47.478;19.036;2023-01-16T08:21:23;99147.78;;;4.37;100.00
56604;BME280;42486;47.478;19.036;2023-01-16T08:24:31;99153.56;;;4.53;100.00
56604;BME280;42486;47.478;19.036;2023-01-16T08:27:37;99144.25;;;4.51;100.00
56604;BME280;42486;47.478;19.036;2023-01-16T08:30:49;99143.53;;;4.61;100.00
56604;BME280;42486;47.478;19.036;2023-01-16T08:33:54;99132.66;;;4.69;100.00
56604;BME280;42486;47.478;19.036;2023-01-16T08:36:59;99129.84;;;4.59;100.00
56604;BME280;42486;47.478;19.036;2023-01-16T08:40:13;99128.53;;;4.54;100.00
56604;BME280;42486;47.478;19.036;2023-01-16T08:43:18;99130.19;;;4.55;100.00
56604;BME280;42486;47.478;19.036;2023-01-16T08:46:43;99114.25;;;4.48;100.00
56604;BME280;42486;47.478;19.036;2023-01-16T08:53:37;99096.06;;;4.37;100.00
56604;BME280;42486;47.478;19.036;2023-01-16T08:56:47;99089.22;;;4.36;100.00
56604;BME280;42486;47.478;19.036;2023-01-16T08:59:55;99082.03;;;4.28;100.00
56604;BME280;42486;47.478;19.036;2023-01-16T09:03:03;99074.06;;;4.31;100.00
56604;BME280;42486;47.478;19.036;2023-01-16T09:06:08;99075.91;;;4.29;100.00
56604;BME280;42486;47.478;19.036;2023-01-16T09:09:13;99064.84;;;4.27;100.00
56604;BME280;42486;47.478;19.036;2023-01-16T09:12:18;99059.66;;;4.27;100.00
56604;BME280;42486;47.478;19.036;2023-01-16T09:15:40;99044.44;;;4.35;100.00
56604;BME280;42486;47.478;19.036;2023-01-16T09:18:43;99032.34;;;4.36;100.00
56604;BME280;42486;47.478;19.036;2023-01-16T09:21:48;99024.69;;;4.47;100.00
56604;BME280;42486;47.478;19.036;2023-01-16T09:24:58;99031.59;;;4.47;100.00
56604;BME280;42486;47.478;19.036;2023-01-16T09:28:04;99012.38;;;4.38;100.00
56604;BME280;42486;47.478;19.036;2023-01-16T09:31:09;99000.44;;;4.24;100.00
56604;BME280;42486;47.478;19.036;2023-01-16T09:34:12;98997.09;;;4.35;100.00
56604;BME280;42486;47.478;19.036;2023-01-16T09:37:27;98991.50;;;4.41;100.00
56604;BME280;42486;47.478;19.036;2023-01-16T09:40:39;98988.59;;;4.46;100.00
56604;BME280;42486;47.478;19.036;2023-01-16T09:43:53;98972.25;;;4.45;100.00
56604;BME280;42486;47.478;19.036;2023-01-16T09:47:00;98958.38;;;4.46;100.00
56604;BME280;42486;47.478;19.036;2023-01-16T09:50:11;98947.44;;;4.43;100.00
56604;BME280;42486;47.478;19.036;2023-01-16T09:53:34;98937.19;;;4.41;100.00
56604;BME280;42486;47.478;19.036;2023-01-16T09:57:03;98933.34;;;4.47;100.00
56604;BME280;42486;47.478;19.036;2023-01-16T10:00:35;98924.88;;;4.45;100.00
56604;BME280;42486;47.478;19.036;2023-01-16T10:03:42;98918.44;;;4.50;100.00
56604;BME280;42486;47.478;19.036;2023-01-16T10:07:39;98911.72;;;4.48;100.00
56604;BME280;42486;47.478;19.036;2023-01-16T10:11:04;98908.66;;;4.43;100.00
56604;BME280;42486;47.478;19.036;2023-01-16T10:18:21;98897.50;;;4.42;100.00
56604;BME280;42486;47.478;19.036;2023-01-16T10:21:51;98889.00;;;4.40;100.00
56604;BME280;42486;47.478;19.036;2023-01-16T10:25:15;98877.62;;;4.43;100.00
56604;BME280;42486;47.478;19.036;2023-01-16T10:29:17;98868.84;;;4.56;100.00
56604;BME280;42486;47.478;19.036;2023-01-16T10:32:31;98855.13;;;4.67;100.00
56604;BME280;42486;47.478;19.036;2023-01-16T10:35:46;98845.88;;;4.76;100.00
56604;BME280;42486;47.478;19.036;2023-01-16T10:39:00;98844.22;;;4.75;100.00
56604;BME280;42486;47.478;19.036;2023-01-16T10:42:35;98838.25;;;4.74;100.00
56604;BME280;42486;47.478;19.036;2023-01-16T10:45:59;98835.69;;;4.85;100.00
56604;BME280;42486;47.478;19.036;2023-01-16T10:49:43;98829.59;;;4.98;100.00
56604;BME280;42486;47.478;19.036;2023-01-16T10:53:11;98823.12;;;5.03;100.00
56604;BME280;42486;47.478;19.036;2023-01-16T10:56:30;98807.38;;;5.06;100.00
56604;BME280;42486;47.478;19.036;2023-01-16T10:59:46;98796.44;;;5.03;100.00
56604;BME280;42486;47.478;19.036;2023-01-16T11:02:50;98783.97;;;5.08;100.00
56604;BME280;42486;47.478;19.036;2023-01-16T11:06:21;98782.06;;;4.99;100.00
56604;BME280;42486;47.478;19.036;2023-01-16T11:09:26;98769.94;;;4.99;100.00
56604;BME280;42486;47.478;19.036;2023-01-16T11:12:30;98767.13;;;4.91;100.00
56604;BME280;42486;47.478;19.036;2023-01-16T11:16:19;98764.66;;;4.90;100.00
56604;BME280;42486;47.478;19.036;2023-01-16T11:19:45;98753.84;;;4.96;100.00
56604;BME280;42486;47.478;19.036;2023-01-16T11:22:55;98743.25;;;4.99;100.00
56604;BME280;42486;47.478;19.036;2023-01-16T11:26:08;98733.38;;;4.93;100.00
56604;BME280;42486;47.478;19.036;2023-01-16T11:29:19;98724.19;;;4.77;100.00
56604;BME280;42486;47.478;19.036;2023-01-16T11:32:26;98714.66;;;4.67;100.00
56604;BME280;42486;47.478;19.036;2023-01-16T11:35:31;98714.66;;;4.67;100.00
56604;BME280;42486;47.478;19.036;2023-01-16T11:38:42;98710.75;;;4.61;100.00
56604;BME280;42486;47.478;19.036;2023-01-16T11:41:50;98703.34;;;4.56;100.00
56604;BME280;42486;47.478;19.036;2023-01-16T11:45:04;98694.03;;;4.43;100.00
56604;BME280;42486;47.478;19.036;2023-01-16T11:48:40;98686.97;;;4.33;100.00
56604;BME280;42486;47.478;19.036;2023-01-16T11:51:43;98680.13;;;4.21;100.00
56604;BME280;42486;47.478;19.036;2023-01-16T11:54:51;98674.50;;;4.27;100.00
56604;BME280;42486;47.478;19.036;2023-01-16T11:58:24;98655.00;;;4.23;100.00
56604;BME280;42486;47.478;19.036;2023-01-16T12:01:46;98657.22;;;4.16;100.00
56604;BME280;42486;47.478;19.036;2023-01-16T12:12:23;98629.50;;;4.18;100.00
56604;BME280;42486;47.478;19.036;2023-01-16T12:26:15;98582.38;;;4.04;100.00
56604;BME280;42486;47.478;19.036;2023-01-16T12:39:55;98555.00;;;4.01;100.00
56604;BME280;42486;47.478;19.036;2023-01-16T12:59:52;98510.97;;;4.14;100.00
56604;BME280;42486;47.478;19.036;2023-01-16T13:03:16;98529.06;;;4.14;100.00
56604;BME280;42486;47.478;19.036;2023-01-16T13:06:41;98529.75;;;4.16;100.00
56604;BME280;42486;47.478;19.036;2023-01-16T13:13:26;98504.63;;;4.18;100.00
56604;BME280;42486;47.478;19.036;2023-01-16T13:16:40;98503.69;;;4.19;100.00
56604;BME280;42486;47.478;19.036;2023-01-16T13:19:45;98494.41;;;4.16;100.00
56604;BME280;42486;47.478;19.036;2023-01-16T13:22:52;98484.53;;;4.10;100.00
56604;BME280;42486;47.478;19.036;2023-01-16T13:26:05;98485.94;;;4.14;100.00
56604;BME280;42486;47.478;19.036;2023-01-16T13:29:25;98493.34;;;4.08;100.00
56604;BME280;42486;47.478;19.036;2023-01-16T13:32:34;98488.66;;;4.02;100.00
56604;BME280;42486;47.478;19.036;2023-01-16T13:35:42;98487.13;;;3.99;100.00
56604;BME280;42486;47.478;19.036;2023-01-16T13:39:03;98483.72;;;3.87;100.00
56604;BME280;42486;47.478;19.036;2023-01-16T13:42:11;98491.81;;;3.83;100.00
56604;BME280;42486;47.478;19.036;2023-01-16T13:45:36;98487.25;;;3.75;100.00
56604;BME280;42486;47.478;19.036;2023-01-16T13:48:52;98490.75;;;3.74;100.00
56604;BME280;42486;47.478;19.036;2023-01-16T13:51:56;98485.97;;;3.81;100.00
56604;BME280;42486;47.478;19.036;2023-01-16T13:55:01;98486.53;;;3.84;100.00
56604;BME280;42486;47.478;19.036;2023-01-16T13:58:20;98486.88;;;3.80;100.00
56604;BME280;42486;47.478;19.036;2023-01-16T14:01:53;98475.59;;;3.69;100.00
56604;BME280;42486;47.478;19.036;2023-01-16T14:08:16;98464.78;;;3.64;100.00
56604;BME280;42486;47.478;19.036;2023-01-16T14:15:23;98462.56;;;3.60;100.00
56604;BME280;42486;47.478;19.036;2023-01-16T14:18:58;98446.72;;;3.64;100.00
56604;BME280;42486;47.478;19.036;2023-01-16T14:22:33;98446.84;;;3.63;100.00
56604;BME280;42486;47.478;19.036;2023-01-16T14:25:55;98439.34;;;3.71;100.00
56604;BME280;42486;47.478;19.036;2023-01-16T14:29:26;98426.66;;;3.68;100.00
56604;BME280;42486;47.478;19.036;2023-01-16T14:32:42;98419.03;;;3.66;100.00
56604;BME280;42486;47.478;19.036;2023-01-16T14:35:51;98410.81;;;3.50;100.00
56604;BME280;42486;47.478;19.036;2023-01-16T14:38:59;98409.03;;;3.50;100.00
56604;BME280;42486;47.478;19.036;2023-01-16T14:42:07;98410.22;;;3.58;100.00
56604;BME280;42486;47.478;19.036;2023-01-16T14:45:34;98399.78;;;3.70;100.00
56604;BME280;42486;47.478;19.036;2023-01-16T14:48:58;98401.31;;;3.73;100.00
56604;BME280;42486;47.478;19.036;2023-01-16T14:52:44;98393.66;;;3.71;100.00
56604;BME280;42486;47.478;19.036;2023-01-16T14:56:26;98387.94;;;3.57;100.00
56604;BME280;42486;47.478;19.036;2023-01-16T14:59:51;98378.19;;;3.60;100.00
56604;BME280;42486;47.478;19.036;2023-01-16T15:03:03;98379.81;;;3.61;100.00
56604;BME280;42486;47.478;19.036;2023-01-16T15:06:10;98370.19;;;3.63;100.00
56604;BME280;42486;47.478;19.036;2023-01-16T15:09:19;98358.09;;;3.64;100.00
56604;BME280;42486;47.478;19.036;2023-01-16T15:12:35;98360.47;;;3.78;100.00
56604;BME280;42486;47.478;19.036;2023-01-16T15:15:41;98351.06;;;3.66;100.00
56604;BME280;42486;47.478;19.036;2023-01-16T15:18:46;98342.62;;;3.64;100.00
56604;BME280;42486;47.478;19.036;2023-01-16T15:22:39;98340.41;;;3.70;100.00
56604;BME280;42486;47.478;19.036;2023-01-16T15:32:18;98330.91;;;3.60;100.00
56604;BME280;42486;47.478;19.036;2023-01-16T15:35:24;98332.06;;;3.78;100.00
56604;BME280;42486;47.478;19.036;2023-01-16T15:38:35;98331.00;;;3.81;100.00
56604;BME280;42486;47.478;19.036;2023-01-16T15:41:39;98330.63;;;3.74;100.00
56604;BME280;42486;47.478;19.036;2023-01-16T15:45:14;98321.97;;;3.75;100.00
56604;BME280;42486;47.478;19.036;2023-01-16T15:48:54;98315.38;;;3.71;100.00
56604;BME280;42486;47.478;19.036;2023-01-16T15:52:16;98312.78;;;3.82;100.00
56604;BME280;42486;47.478;19.036;2023-01-16T15:55:28;98310.53;;;3.89;100.00
56604;BME280;42486;47.478;19.036;2023-01-16T15:58:32;98306.28;;;3.99;100.00
56604;BME280;42486;47.478;19.036;2023-01-16T16:01:37;98298.66;;;3.97;100.00
56604;BME280;42486;47.478;19.036;2023-01-16T16:04:41;98303.94;;;3.96;100.00
56604;BME280;42486;47.478;19.036;2023-01-16T16:07:44;98313.91;;;4.01;100.00
56604;BME280;42486;47.478;19.036;2023-01-16T16:10:51;98300.28;;;3.98;100.00
56604;BME280;42486;47.478;19.036;2023-01-16T16:14:35;98305.44;;;3.98;100.00
56604;BME280;42486;47.478;19.036;2023-01-16T16:18:18;98294.19;;;4.00;100.00
56604;BME280;42486;47.478;19.036;2023-01-16T16:21:29;98291.50;;;3.90;100.00
56604;BME280;42486;47.478;19.036;2023-01-16T16:24:38;98287.66;;;3.84;100.00
56604;BME280;42486;47.478;19.036;2023-01-16T16:27:41;98292.66;;;3.97;100.00
56604;BME280;42486;47.478;19.036;2023-01-16T16:30:44;98282.59;;;3.94;100.00
56604;BME280;42486;47.478;19.036;2023-01-16T16:34:32;98285.97;;;3.94;100.00
56604;BME280;42486;47.478;19.036;2023-01-16T16:37:41;98267.31;;;3.91;100.00
56604;BME280;42486;47.478;19.036;2023-01-16T16:45:21;98248.16;;;3.93;100.00
56604;BME280;42486;47.478;19.036;2023-01-16T16:48:41;98249.22;;;3.91;100.00
56604;BME280;42486;47.478;19.036;2023-01-16T16:51:51;98243.34;;;4.00;100.00
56604;BME280;42486;47.478;19.036;2023-01-16T16:55:31;98251.19;;;4.10;100.00
56604;BME280;42486;47.478;19.036;2023-01-16T16:58:46;98245.31;;;4.08;100.00
56604;BME280;42486;47.478;19.036;2023-01-16T17:02:12;98235.41;;;4.13;100.00
56604;BME280;42486;47.478;19.036;2023-01-16T17:05:28;98239.25;;;4.18;100.00
56604;BME280;42486;47.478;19.036;2023-01-16T17:08:36;98238.72;;;4.15;100.00
56604;BME280;42486;47.478;19.036;2023-01-16T17:12:18;98240.19;;;4.17;100.00
56604;BME280;42486;47.478;19.036;2023-01-16T17:15:30;98231.25;;;4.22;100.00
56604;BME280;42486;47.478;19.036;2023-01-16T17:18:33;98229.03;;;4.17;100.00
56604;BME280;42486;47.478;19.036;2023-01-16T17:21:37;98230.56;;;4.19;100.00
56604;BME280;42486;47.478;19.036;2023-01-16T17:24:46;98232.06;;;4.22;100.00
56604;BME280;42486;47.478;19.036;2023-01-16T17:28:12;98240.19;;;4.17;100.00
56604;BME280;42486;47.478;19.036;2023-01-16T17:31:23;98234.72;;;4.11;100.00
56604;BME280;42486;47.478;19.036;2023-01-16T17:34:30;98235.28;;;4.14;100.00
56604;BME280;42486;47.478;19.036;2023-01-16T17:37:35;98241.28;;;4.15;100.00
56604;BME280;42486;47.478;19.036;2023-01-16T17:40:47;98250.97;;;4.23;100.00
56604;BME280;42486;47.478;19.036;2023-01-16T17:43:57;98249.16;;;4.13;100.00
56604;BME280;42486;47.478;19.036;2023-01-16T17:47:19;98240.19;;;4.17;100.00
56604;BME280;42486;47.478;19.036;2023-01-16T17:50:54;98237.59;;;4.17;100.00
56604;BME280;42486;47.478;19.036;2023-01-16T17:54:14;98232.13;;;4.11;100.00
56604;BME280;42486;47.478;19.036;2023-01-16T17:57:40;98228.59;;;4.12;100.00
56604;BME280;42486;47.478;19.036;2023-01-16T18:00:49;98218.97;;;4.14;100.00
56604;BME280;42486;47.478;19.036;2023-01-16T18:03:55;98207.44;;;4.18;100.00
56604;BME280;42486;47.478;19.036;2023-01-16T18:07:22;98206.94;;;4.24;100.00
56604;BME280;42486;47.478;19.036;2023-01-16T18:10:34;98207.47;;;4.28;100.00
56604;BME280;42486;47.478;19.036;2023-01-16T18:13:37;98203.00;;;4.30;100.00
56604;BME280;42486;47.478;19.036;2023-01-16T18:16:59;98202.47;;;4.26;100.00
56604;BME280;42486;47.478;19.036;2023-01-16T18:20:23;98198.81;;;4.29;100.00
56604;BME280;42486;47.478;19.036;2023-01-16T18:23:28;98193.50;;;4.30;100.00
56604;BME280;42486;47.478;19.036;2023-01-16T18:26:31;98184.66;;;4.33;100.00
56604;BME280;42486;47.478;19.036;2023-01-16T18:29:36;98178.75;;;4.21;100.00
56604;BME280;42486;47.478;19.036;2023-01-16T18:32:43;98184.94;;;4.30;100.00
56604;BME280;42486;47.478;19.036;2023-01-16T18:36:03;98190.09;;;4.30;100.00
56604;BME280;42486;47.478;19.036;2023-01-16T18:39:09;98189.53;;;4.26;100.00
56604;BME280;42486;47.478;19.036;2023-01-16T18:42:33;98176.34;;;4.29;100.00